createdAt,value
2023-02-08T00:00:54.782Z,13.98
2023-02-08T00:03:21.737Z,11.27
2023-02-08T00:05:48.670Z,13.00
2023-02-08T00:08:15.779Z,11.00
2023-02-08T00:10:44.605Z,14.35
2023-02-08T00:13:11.111Z,11.38
2023-02-08T00:15:44.950Z,8.82
2023-02-08T00:18:11.940Z,13.55
2023-02-08T00:20:40.499Z,12.45
2023-02-08T00:23:07.807Z,10.18
2023-02-08T00:25:35.098Z,10.27
2023-02-08T00:28:05.384Z,10.68
2023-02-08T00:30:35.921Z,8.35
2023-02-08T00:33:02.729Z,9.30
2023-02-08T00:35:29.449Z,8.52
2023-02-08T00:37:57.138Z,11.60
2023-02-08T00:40:24.005Z,10.35
2023-02-08T00:42:50.682Z,9.80
2023-02-08T00:45:17.515Z,9.10
2023-02-08T00:47:43.850Z,12.32
2023-02-08T00:50:10.950Z,10.35
2023-02-08T00:52:37.463Z,8.20
2023-02-08T00:55:05.066Z,13.93
2023-02-08T00:57:35.192Z,9.15
2023-02-08T01:00:02.227Z,8.25
2023-02-08T01:02:31.257Z,7.30
2023-02-08T01:05:00.100Z,10.57
2023-02-08T01:07:29.911Z,12.73
2023-02-08T01:10:00.004Z,9.68
2023-02-08T01:12:26.366Z,6.10
2023-02-08T01:14:52.967Z,10.77
2023-02-08T01:17:19.318Z,8.23
2023-02-08T01:19:45.666Z,15.77
2023-02-08T01:22:12.057Z,9.48
2023-02-08T01:24:38.450Z,10.18
2023-02-08T01:27:07.146Z,11.55
2023-02-08T01:29:36.134Z,10.68
2023-02-08T01:32:02.483Z,11.82
2023-02-08T01:34:33.514Z,8.77
2023-02-08T01:36:59.882Z,10.13
2023-02-08T01:39:26.420Z,11.48
2023-02-08T01:41:55.697Z,14.00
2023-02-08T01:45:00.129Z,12.23
2023-02-08T01:47:26.969Z,8.45
2023-02-08T01:49:53.545Z,14.93
2023-02-08T01:52:25.018Z,14.15
2023-02-08T01:54:57.637Z,6.10
2023-02-08T01:57:29.796Z,12.77
2023-02-08T02:00:03.820Z,18.75
2023-02-08T02:02:34.112Z,11.63
2023-02-08T02:05:01.585Z,9.55
2023-02-08T02:07:33.176Z,8.93
2023-02-08T02:10:14.610Z,15.73
2023-02-08T02:12:42.791Z,17.80
2023-02-08T02:15:10.335Z,7.93
2023-02-08T02:17:39.596Z,13.95
2023-02-08T02:20:28.499Z,10.00
2023-02-08T02:22:58.117Z,15.30
2023-02-08T02:25:41.804Z,11.50
2023-02-08T02:28:26.699Z,12.55
2023-02-08T02:31:02.181Z,9.55
2023-02-08T02:33:35.294Z,13.60
2023-02-08T02:36:13.627Z,21.25
2023-02-08T02:39:14.319Z,17.73
2023-02-08T02:42:10.577Z,16.33
2023-02-08T02:45:06.207Z,13.52
2023-02-08T02:47:52.890Z,14.98
2023-02-08T02:50:42.238Z,14.73
2023-02-08T02:53:36.590Z,11.00
2023-02-08T02:56:15.343Z,12.80
2023-02-08T02:58:44.427Z,18.35
2023-02-08T03:01:14.019Z,14.27
2023-02-08T03:03:42.757Z,11.10
2023-02-08T03:06:22.349Z,17.25
2023-02-08T03:09:30.920Z,12.13
2023-02-08T03:12:27.823Z,13.07
2023-02-08T03:15:22.025Z,14.02
2023-02-08T03:18:25.878Z,15.00
2023-02-08T03:21:01.206Z,20.67
2023-02-08T03:23:40.568Z,17.52
2023-02-08T03:26:20.408Z,13.90
2023-02-08T03:29:16.632Z,16.20
2023-02-08T03:31:57.978Z,16.88
2023-02-08T03:34:36.309Z,12.40
2023-02-08T03:37:10.097Z,17.00
2023-02-08T03:39:38.893Z,17.45
2023-02-08T03:42:12.187Z,18.98
2023-02-08T03:44:51.255Z,17.20
2023-02-08T03:47:24.836Z,17.43
2023-02-08T03:49:54.040Z,14.73
2023-02-08T03:52:24.448Z,19.63
2023-02-08T03:55:16.443Z,15.40
2023-02-08T03:57:52.864Z,17.07
2023-02-08T04:00:22.030Z,16.53
2023-02-08T04:03:02.832Z,18.07
2023-02-08T04:05:31.922Z,14.70
2023-02-08T04:07:58.257Z,22.63
2023-02-08T04:10:24.726Z,18.77
2023-02-08T04:12:51.355Z,27.83
2023-02-08T04:15:17.930Z,20.83
2023-02-08T04:17:44.520Z,21.73
2023-02-08T04:20:11.346Z,22.97
2023-02-08T04:22:37.848Z,15.40
2023-02-08T04:25:04.884Z,15.30
2023-02-08T04:27:31.377Z,20.37
2023-02-08T04:29:57.895Z,20.05
2023-02-08T04:32:24.260Z,18.07
2023-02-08T04:34:50.652Z,19.90
2023-02-08T04:37:17.136Z,14.90
2023-02-08T04:39:43.497Z,16.83
2023-02-08T04:42:09.989Z,12.40
2023-02-08T04:44:42.953Z,18.60
2023-02-08T04:47:09.321Z,25.73
2023-02-08T04:49:38.106Z,15.37
2023-02-08T04:52:06.402Z,13.50
2023-02-08T04:54:33.853Z,16.35
2023-02-08T04:57:13.363Z,20.30
2023-02-08T04:59:43.310Z,18.67
2023-02-08T05:02:12.219Z,16.27
2023-02-08T05:04:39.057Z,11.73
2023-02-08T05:07:07.544Z,19.13
2023-02-08T05:09:34.470Z,17.13
2023-02-08T05:12:03.575Z,21.60
2023-02-08T05:14:29.968Z,15.47
2023-02-08T05:16:56.505Z,16.70
2023-02-08T05:19:26.443Z,17.70
2023-02-08T05:21:53.040Z,14.67
2023-02-08T05:24:24.337Z,15.43
2023-02-08T05:26:50.943Z,16.57
2023-02-08T05:29:19.896Z,19.20
2023-02-08T05:31:46.589Z,18.67
2023-02-08T05:34:13.107Z,24.20
2023-02-08T05:36:39.665Z,16.50
2023-02-08T05:39:08.611Z,14.30
2023-02-08T05:41:35.060Z,24.10
2023-02-08T05:44:03.952Z,19.03
2023-02-08T05:46:30.615Z,16.87
2023-02-08T05:49:00.268Z,27.33
2023-02-08T05:51:26.861Z,19.60
2023-02-08T05:53:53.274Z,22.63
2023-02-08T05:56:19.929Z,20.57
2023-02-08T05:58:46.304Z,22.57
2023-02-08T06:01:13.921Z,31.63
2023-02-08T06:03:40.712Z,30.43
2023-02-08T06:06:07.995Z,25.63
2023-02-08T06:08:34.465Z,25.00
2023-02-08T06:11:01.164Z,23.20
2023-02-08T06:13:29.161Z,26.83
2023-02-08T06:15:56.548Z,27.40
2023-02-08T06:18:25.614Z,25.23
2023-02-08T06:20:55.434Z,25.30
2023-02-08T06:23:22.894Z,13.27
2023-02-08T06:25:52.721Z,17.10
2023-02-08T06:28:19.145Z,19.10
2023-02-08T06:30:45.740Z,26.30
2023-02-08T06:33:13.922Z,23.53
2023-02-08T06:35:46.341Z,17.67
2023-02-08T06:38:14.051Z,20.63
2023-02-08T06:40:40.972Z,15.90
2023-02-08T06:43:07.608Z,28.00
2023-02-08T06:45:36.594Z,20.10
2023-02-08T06:48:05.575Z,16.93
2023-02-08T06:50:32.482Z,23.97
2023-02-08T06:52:59.081Z,18.50
2023-02-08T06:55:25.461Z,20.20
2023-02-08T06:57:55.355Z,40.10
2023-02-08T07:00:22.243Z,33.37
2023-02-08T07:02:48.639Z,37.57
2023-02-08T07:05:15.236Z,23.60
2023-02-08T07:07:41.625Z,21.37
2023-02-08T07:10:08.189Z,22.73
2023-02-08T07:12:36.370Z,19.20
2023-02-08T07:15:03.936Z,23.93
2023-02-08T07:17:30.303Z,22.33
2023-02-08T07:19:57.295Z,21.17
2023-02-08T07:22:23.830Z,26.10
2023-02-08T07:24:50.294Z,18.93
2023-02-08T07:27:16.802Z,23.83
2023-02-08T07:29:43.216Z,22.77
2023-02-08T07:32:10.136Z,22.43
2023-02-08T07:34:53.093Z,24.83
2023-02-08T07:37:20.958Z,19.37
2023-02-08T07:39:47.593Z,21.80
2023-02-08T07:42:14.147Z,23.50
2023-02-08T07:44:45.644Z,18.57
2023-02-08T07:47:15.520Z,23.17
2023-02-08T07:49:41.987Z,20.13
2023-02-08T07:52:08.848Z,21.33
2023-02-08T07:54:41.423Z,23.93
2023-02-08T07:57:08.273Z,26.77
2023-02-08T07:59:37.306Z,25.55
2023-02-08T08:02:04.098Z,17.63
2023-02-08T08:04:30.471Z,21.77
2023-02-08T08:06:59.155Z,27.10
2023-02-08T08:09:25.612Z,23.67
2023-02-08T08:11:52.074Z,22.08
2023-02-08T08:14:18.540Z,51.30
2023-02-08T08:16:45.028Z,24.55
2023-02-08T08:19:11.652Z,33.38
2023-02-08T08:21:40.706Z,27.17
2023-02-08T08:24:07.226Z,29.15
2023-02-08T08:26:40.747Z,27.75
2023-02-08T08:29:07.258Z,24.67
2023-02-08T08:31:33.745Z,19.08
2023-02-08T08:34:00.132Z,20.33
2023-02-08T08:36:26.529Z,25.20
2023-02-08T08:38:53.033Z,21.67
2023-02-08T08:41:21.030Z,27.48
2023-02-08T08:43:49.867Z,19.83
2023-02-08T08:46:16.753Z,18.85
2023-02-08T08:48:43.421Z,21.23
2023-02-08T08:51:12.997Z,15.32
2023-02-08T08:53:39.696Z,15.07
2023-02-08T08:56:06.647Z,20.02
2023-02-08T08:58:33.118Z,17.42
2023-02-08T09:01:00.379Z,19.92
2023-02-08T09:03:27.703Z,36.00
2023-02-08T09:05:58.724Z,29.00
2023-02-08T09:08:25.265Z,54.53
2023-02-08T09:10:51.708Z,23.73
2023-02-08T09:13:21.697Z,17.27
2023-02-08T09:15:49.348Z,13.45
2023-02-08T09:18:16.244Z,23.48
2023-02-08T09:20:43.031Z,13.48
2023-02-08T09:23:09.743Z,15.25
2023-02-08T09:25:36.836Z,15.95
2023-02-08T09:28:03.717Z,16.70
2023-02-08T09:30:33.558Z,20.88
2023-02-08T09:32:59.994Z,18.13
2023-02-08T09:35:26.555Z,14.77
2023-02-08T09:37:55.398Z,15.68
2023-02-08T09:40:29.859Z,20.35
2023-02-08T09:43:31.903Z,18.38
2023-02-08T09:46:07.950Z,17.17
2023-02-08T09:48:40.407Z,65.60
2023-02-08T09:54:00.013Z,16.08
2023-02-08T09:56:41.827Z,15.68
2023-02-08T10:02:38.898Z,19.58
2023-02-08T10:05:16.998Z,14.27
2023-02-08T10:07:43.961Z,11.95
2023-02-08T10:10:35.749Z,11.85
2023-02-08T10:13:41.557Z,14.23
2023-02-08T10:16:23.480Z,12.98
2023-02-08T10:18:52.081Z,14.63
2023-02-08T10:21:48.794Z,14.38
2023-02-08T10:24:27.677Z,15.52
2023-02-08T10:27:08.950Z,18.88
2023-02-08T10:30:29.574Z,16.05
2023-02-08T10:33:07.153Z,20.60
2023-02-08T10:35:42.519Z,17.85
2023-02-08T10:38:24.988Z,15.35
2023-02-08T10:41:02.860Z,11.85
2023-02-08T10:43:38.175Z,13.93
2023-02-08T10:46:09.135Z,17.40
2023-02-08T10:48:35.517Z,13.80
2023-02-08T10:51:02.106Z,17.38
2023-02-08T10:53:28.617Z,14.07
2023-02-08T10:55:55.110Z,15.77
2023-02-08T10:58:28.980Z,11.38
2023-02-08T11:00:59.619Z,12.85
2023-02-08T11:03:31.195Z,11.35
2023-02-08T11:06:00.727Z,12.30
2023-02-08T11:08:44.553Z,11.38
2023-02-08T11:11:11.171Z,12.30
2023-02-08T11:13:40.656Z,15.75
2023-02-08T11:16:54.482Z,13.07
2023-02-08T11:19:49.899Z,11.77
2023-02-08T11:22:32.727Z,11.95
2023-02-08T11:25:08.078Z,12.38
2023-02-08T11:27:43.202Z,10.40
2023-02-08T11:30:19.503Z,9.95
2023-02-08T11:32:48.887Z,9.38
2023-02-08T11:35:23.935Z,13.88
2023-02-08T11:38:02.489Z,10.45
2023-02-08T11:40:35.966Z,10.10
2023-02-08T11:43:03.928Z,14.70
2023-02-08T11:45:33.967Z,12.32
2023-02-08T11:48:09.632Z,9.43
2023-02-08T11:50:44.094Z,12.63
2023-02-08T11:53:27.839Z,18.25
2023-02-08T11:56:22.630Z,9.82
2023-02-08T11:59:12.357Z,13.15
2023-02-08T12:01:41.576Z,9.85
2023-02-08T12:04:16.506Z,8.20
2023-02-08T12:06:55.227Z,14.10
2023-02-08T12:09:59.419Z,12.85
2023-02-08T12:12:43.769Z,14.93
2023-02-08T12:15:26.785Z,10.98
2023-02-08T12:18:31.649Z,8.18
2023-02-08T12:21:25.647Z,9.25
2023-02-08T12:24:46.076Z,13.35
2023-02-08T12:27:24.297Z,10.43
2023-02-08T12:29:55.321Z,8.50
2023-02-08T12:32:40.520Z,9.35
2023-02-08T12:35:10.311Z,12.20
2023-02-08T12:38:38.113Z,10.43
2023-02-08T12:41:17.905Z,7.78
2023-02-08T12:44:06.935Z,11.68
2023-02-08T12:46:56.268Z,8.63
2023-02-08T12:49:30.375Z,8.30
2023-02-08T12:52:21.223Z,10.15
2023-02-08T12:54:59.136Z,12.23
2023-02-08T12:57:31.963Z,9.32
2023-02-08T13:00:09.061Z,11.30
2023-02-08T13:02:46.078Z,8.95
2023-02-08T13:05:22.183Z,16.60
2023-02-08T13:07:58.416Z,9.23
2023-02-08T13:10:40.422Z,17.77
2023-02-08T13:13:21.722Z,12.25
2023-02-08T13:15:59.939Z,8.63
2023-02-08T13:18:53.521Z,9.55
2023-02-08T13:21:25.968Z,10.48
2023-02-08T13:26:33.286Z,9.48
2023-02-08T13:29:04.226Z,11.30
2023-02-08T13:31:58.191Z,9.68
2023-02-08T13:34:50.911Z,8.15
2023-02-08T13:37:31.536Z,7.50
2023-02-08T13:40:09.262Z,11.73
2023-02-08T13:42:43.988Z,8.13
2023-02-08T13:45:37.870Z,7.18
2023-02-08T13:48:13.595Z,7.82
2023-02-08T13:50:51.176Z,5.97
2023-02-08T13:53:25.419Z,8.88
2023-02-08T13:56:01.287Z,8.02
2023-02-08T13:58:48.020Z,10.05
2023-02-08T14:01:20.763Z,9.93
2023-02-08T14:04:12.585Z,14.63
2023-02-08T14:06:44.167Z,8.63
2023-02-08T14:09:24.702Z,7.87
2023-02-08T14:12:00.152Z,7.68
2023-02-08T14:14:40.080Z,7.57
2023-02-08T14:17:30.047Z,7.28
2023-02-08T14:20:06.824Z,6.65
2023-02-08T14:22:42.198Z,7.75
2023-02-08T14:25:19.583Z,6.47
2023-02-08T14:28:25.221Z,7.60
2023-02-08T14:30:58.730Z,11.30
2023-02-08T14:33:34.052Z,5.13
2023-02-08T14:36:08.251Z,5.25
2023-02-08T14:39:04.084Z,4.90
2023-02-08T14:42:04.072Z,7.65
2023-02-08T14:44:41.568Z,11.38
2023-02-08T14:47:25.846Z,10.05
2023-02-08T14:50:07.336Z,8.75
2023-02-08T14:52:35.488Z,8.70
2023-02-08T14:55:19.843Z,6.22
2023-02-08T14:57:46.609Z,5.35
2023-02-08T15:00:24.045Z,8.35
2023-02-08T15:03:00.504Z,8.77
2023-02-08T15:05:35.732Z,6.32
2023-02-08T15:08:10.595Z,9.02
2023-02-08T15:10:45.447Z,8.05
2023-02-08T15:13:21.705Z,10.27
2023-02-08T15:15:53.143Z,7.82
2023-02-08T15:18:25.068Z,5.53
2023-02-08T15:21:11.578Z,4.72
2023-02-08T15:23:40.387Z,9.07
2023-02-08T15:26:23.997Z,10.27
2023-02-08T15:29:05.312Z,7.93
2023-02-08T15:31:33.768Z,5.93
2023-02-08T15:34:02.348Z,13.20
2023-02-08T15:36:34.652Z,6.93
2023-02-08T15:39:24.782Z,9.85
2023-02-08T15:42:02.663Z,12.85
2023-02-08T15:44:37.934Z,8.77
2023-02-08T15:47:34.743Z,11.27
2023-02-08T15:50:03.161Z,10.68
2023-02-08T15:52:33.041Z,7.55
2023-02-08T15:54:59.562Z,10.35
2023-02-08T15:57:33.572Z,11.88
2023-02-08T16:00:01.569Z,10.32
2023-02-08T16:02:37.199Z,10.20
2023-02-08T16:05:18.041Z,11.95
2023-02-08T16:07:45.984Z,10.60
2023-02-08T16:10:36.900Z,12.23
2023-02-08T16:13:07.569Z,10.00
2023-02-08T16:16:03.810Z,13.50
2023-02-08T16:18:34.901Z,10.48
2023-02-08T16:21:16.118Z,13.23
2023-02-08T16:23:55.329Z,13.55
2023-02-08T16:26:33.705Z,15.00
2023-02-08T16:29:05.240Z,18.67
2023-02-08T16:31:35.809Z,16.33
2023-02-08T16:36:51.187Z,18.65
2023-02-08T16:39:17.914Z,16.98
2023-02-08T16:42:00.977Z,20.60
2023-02-08T16:44:39.084Z,14.68
2023-02-08T16:49:52.386Z,21.48
2023-02-08T16:52:19.370Z,16.05
2023-02-08T16:54:54.660Z,22.08
2023-02-08T16:57:24.409Z,17.20
2023-02-08T16:59:59.673Z,18.10
2023-02-08T17:02:31.376Z,20.95
2023-02-08T17:04:57.768Z,18.63
2023-02-08T17:07:29.732Z,15.43
2023-02-08T17:09:59.515Z,25.13
2023-02-08T17:12:34.407Z,26.30
2023-02-08T17:15:04.363Z,23.92
2023-02-08T17:17:34.990Z,15.60
2023-02-08T17:20:11.160Z,17.95
2023-02-08T17:22:37.582Z,19.08
2023-02-08T17:25:07.078Z,19.02
2023-02-08T17:27:33.887Z,19.60
2023-02-08T17:30:02.288Z,22.52
2023-02-08T17:32:31.274Z,21.45
2023-02-08T17:35:09.730Z,22.52
2023-02-08T17:37:36.724Z,16.50
2023-02-08T17:40:06.495Z,28.08
2023-02-08T17:42:33.181Z,33.60
2023-02-08T17:45:01.977Z,20.02
2023-02-08T17:47:33.474Z,23.70
2023-02-08T17:50:01.415Z,19.37
2023-02-08T17:52:30.456Z,22.50
2023-02-08T17:55:00.525Z,26.33
2023-02-08T17:57:29.619Z,24.65
2023-02-08T17:59:56.278Z,16.85
2023-02-08T18:02:24.866Z,18.88
2023-02-08T18:04:51.331Z,23.30
2023-02-08T18:07:25.626Z,22.20
2023-02-08T18:09:52.280Z,17.35
2023-02-08T18:12:28.718Z,19.45
2023-02-08T18:14:58.665Z,20.17
2023-02-08T18:17:25.227Z,23.30
2023-02-08T18:19:52.318Z,23.27
2023-02-08T18:22:22.101Z,19.60
2023-02-08T18:24:51.970Z,24.20
2023-02-08T18:27:18.568Z,20.58
2023-02-08T18:29:51.520Z,28.08
2023-02-08T18:32:20.437Z,18.45
2023-02-08T18:34:50.130Z,15.45
2023-02-08T18:37:20.377Z,19.52
2023-02-08T18:39:55.515Z,25.17
2023-02-08T18:42:22.105Z,19.95
2023-02-08T18:44:58.609Z,21.00
2023-02-08T18:47:25.257Z,23.58
2023-02-08T18:49:55.452Z,21.15
2023-02-08T18:52:23.650Z,22.30
2023-02-08T18:54:50.347Z,17.85
2023-02-08T18:57:16.840Z,27.38
2023-02-08T18:59:46.320Z,16.58
2023-02-08T19:02:22.166Z,19.08
2023-02-08T19:04:49.071Z,20.92
2023-02-08T19:07:16.345Z,20.85
2023-02-08T19:09:44.290Z,20.83
2023-02-08T19:12:13.543Z,25.00
2023-02-08T19:14:43.957Z,20.83
2023-02-08T19:17:12.444Z,24.55
2023-02-08T19:19:40.839Z,22.42
2023-02-08T19:22:07.269Z,26.70
2023-02-08T19:24:33.806Z,23.75
2023-02-08T19:27:03.468Z,28.08
2023-02-08T19:29:29.814Z,23.15
2023-02-08T19:31:58.387Z,21.80
2023-02-08T19:34:30.720Z,16.73
2023-02-08T19:37:01.933Z,18.23
2023-02-08T19:39:28.399Z,16.08
2023-02-08T19:41:55.480Z,15.73
2023-02-08T19:44:23.093Z,17.02
2023-02-08T19:46:54.871Z,25.85
2023-02-08T19:49:28.602Z,30.25
2023-02-08T19:52:02.511Z,22.02
2023-02-08T19:54:29.311Z,21.83
2023-02-08T19:57:01.138Z,16.17
2023-02-08T19:59:29.925Z,17.50
2023-02-08T20:01:56.845Z,15.50
2023-02-08T20:04:36.543Z,19.25
2023-02-08T20:07:07.129Z,22.90
2023-02-08T20:09:37.017Z,19.25
2023-02-08T20:12:04.148Z,17.05
2023-02-08T20:14:34.310Z,21.08
2023-02-08T20:17:11.039Z,19.45
2023-02-08T20:19:38.843Z,22.10
2023-02-08T20:22:07.946Z,14.63
2023-02-08T20:24:42.057Z,19.27
2023-02-08T20:27:11.542Z,19.95
2023-02-08T20:29:40.643Z,24.60
2023-02-08T20:32:08.142Z,16.15
2023-02-08T20:34:47.473Z,17.50
2023-02-08T20:37:22.944Z,18.85
2023-02-08T20:39:59.523Z,20.00
2023-02-08T20:42:25.885Z,19.02
2023-02-08T20:44:53.446Z,23.15
2023-02-08T20:47:23.207Z,20.02
2023-02-08T20:49:50.361Z,20.40
2023-02-08T20:52:28.801Z,16.92
2023-02-08T20:54:55.621Z,13.45
2023-02-08T20:57:22.403Z,14.63
2023-02-08T20:59:53.633Z,19.17
2023-02-08T21:02:23.324Z,14.70
2023-02-08T21:04:52.702Z,17.30
2023-02-08T21:07:27.299Z,13.48
2023-02-08T21:10:01.738Z,15.32
2023-02-08T21:12:30.385Z,12.00
2023-02-08T21:14:58.136Z,18.50
2023-02-08T21:17:24.776Z,23.30
2023-02-08T21:19:51.326Z,16.98
2023-02-08T21:22:20.660Z,15.88
2023-02-08T21:24:55.161Z,17.50
2023-02-08T21:27:29.364Z,24.58
2023-02-08T21:29:56.112Z,14.68
2023-02-08T21:32:25.088Z,18.77
2023-02-08T21:34:53.303Z,19.33
2023-02-08T21:37:22.050Z,22.23
2023-02-08T21:39:48.520Z,25.05
2023-02-08T21:42:15.004Z,22.63
2023-02-08T21:44:41.506Z,14.43
2023-02-08T21:47:08.017Z,18.55
2023-02-08T21:49:53.484Z,16.95
2023-02-08T21:52:51.960Z,16.40
2023-02-08T21:55:18.372Z,21.25
2023-02-08T21:57:47.417Z,19.00
2023-02-08T22:00:14.682Z,17.70
2023-02-08T22:02:44.620Z,22.42
2023-02-08T22:05:14.240Z,20.50
2023-02-08T22:07:56.364Z,16.27
2023-02-08T22:10:25.634Z,22.35
2023-02-08T22:12:55.427Z,18.85
2023-02-08T22:15:24.284Z,16.73
2023-02-08T22:18:03.384Z,16.70
2023-02-08T22:20:32.785Z,19.20
2023-02-08T22:22:59.231Z,22.80
2023-02-08T22:25:31.122Z,25.48
2023-02-08T22:28:00.267Z,21.73
2023-02-08T22:30:26.889Z,19.95
2023-02-08T22:32:53.381Z,15.93
2023-02-08T22:35:20.592Z,15.43
2023-02-08T22:37:47.128Z,16.75
2023-02-08T22:40:17.134Z,14.15
2023-02-08T22:42:47.402Z,20.85
2023-02-08T22:45:16.341Z,14.23
2023-02-08T22:47:46.212Z,20.67
2023-02-08T22:50:16.069Z,24.33
2023-02-08T22:52:45.295Z,16.80
2023-02-08T22:55:12.336Z,19.58
2023-02-08T22:57:44.476Z,15.95
2023-02-08T23:00:19.446Z,18.17
2023-02-08T23:02:51.293Z,17.02
2023-02-08T23:05:18.306Z,20.25
2023-02-08T23:07:44.802Z,16.38
2023-02-08T23:10:11.635Z,15.05
2023-02-08T23:12:40.997Z,19.02
2023-02-08T23:15:16.455Z,15.75
2023-02-08T23:17:43.400Z,12.23
2023-02-08T23:20:10.406Z,14.60
2023-02-08T23:22:37.786Z,15.68
2023-02-08T23:25:05.051Z,11.07
2023-02-08T23:27:41.503Z,13.50
2023-02-08T23:30:10.355Z,14.48
2023-02-08T23:32:39.901Z,19.52
2023-02-08T23:35:11.553Z,16.80
2023-02-08T23:37:38.170Z,18.27
2023-02-08T23:40:07.510Z,17.25
2023-02-08T23:42:34.098Z,14.98
2023-02-08T23:45:01.368Z,21.08
2023-02-08T23:47:40.392Z,14.05
2023-02-08T23:50:19.160Z,16.42
2023-02-08T23:52:45.689Z,17.05
2023-02-08T23:55:12.352Z,14.02
2023-02-08T23:57:42.722Z,13.75
